sensor_id;sensor_type;location;lat;lon;timestamp;P1;durP1;ratioP1;P2;durP2;ratioP2
9102;SDS011;4587;51.434;6.788;2023-05-29T00:01:34;4.27;;;2.40;;
9102;SDS011;4587;51.434;6.788;2023-05-29T00:04:01;3.50;;;2.30;;
9102;SDS011;4587;51.434;6.788;2023-05-29T00:06:26;5.27;;;2.57;;
9102;SDS011;4587;51.434;6.788;2023-05-29T00:08:52;6.07;;;2.50;;
9102;SDS011;4587;51.434;6.788;2023-05-29T00:11:17;8.20;;;2.87;;
9102;SDS011;4587;51.434;6.788;2023-05-29T00:13:43;3.77;;;2.67;;
9102;SDS011;4587;51.434;6.788;2023-05-29T00:16:09;5.73;;;2.50;;
9102;SDS011;4587;51.434;6.788;2023-05-29T00:18:35;5.17;;;2.80;;
9102;SDS011;4587;51.434;6.788;2023-05-29T00:21:01;3.53;;;2.50;;
9102;SDS011;4587;51.434;6.788;2023-05-29T00:23:26;4.60;;;3.00;;
9102;SDS011;4587;51.434;6.788;2023-05-29T00:25:52;2.87;;;2.50;;
9102;SDS011;4587;51.434;6.788;2023-05-29T00:28:18;4.43;;;2.87;;
9102;SDS011;4587;51.434;6.788;2023-05-29T00:30:43;4.27;;;2.80;;
9102;SDS011;4587;51.434;6.788;2023-05-29T00:33:09;4.70;;;2.80;;
9102;SDS011;4587;51.434;6.788;2023-05-29T00:35:35;4.17;;;2.90;;
9102;SDS011;4587;51.434;6.788;2023-05-29T00:38:00;4.00;;;2.70;;
9102;SDS011;4587;51.434;6.788;2023-05-29T00:40:26;5.67;;;2.80;;
9102;SDS011;4587;51.434;6.788;2023-05-29T00:42:52;5.23;;;3.07;;
9102;SDS011;4587;51.434;6.788;2023-05-29T00:45:18;4.80;;;2.90;;
9102;SDS011;4587;51.434;6.788;2023-05-29T00:47:43;5.13;;;2.60;;
9102;SDS011;4587;51.434;6.788;2023-05-29T00:50:10;3.53;;;2.87;;
9102;SDS011;4587;51.434;6.788;2023-05-29T00:52:38;4.80;;;3.13;;
9102;SDS011;4587;51.434;6.788;2023-05-29T00:55:06;5.27;;;2.97;;
9102;SDS011;4587;51.434;6.788;2023-05-29T00:57:33;6.33;;;3.20;;
9102;SDS011;4587;51.434;6.788;2023-05-29T01:00:00;3.83;;;2.90;;
9102;SDS011;4587;51.434;6.788;2023-05-29T01:02:31;5.90;;;3.23;;
9102;SDS011;4587;51.434;6.788;2023-05-29T01:04:57;4.67;;;3.10;;
9102;SDS011;4587;51.434;6.788;2023-05-29T01:07:23;4.80;;;3.03;;
9102;SDS011;4587;51.434;6.788;2023-05-29T01:09:48;5.63;;;3.33;;
9102;SDS011;4587;51.434;6.788;2023-05-29T01:15:14;5.93;;;3.23;;
9102;SDS011;4587;51.434;6.788;2023-05-29T01:28:48;7.97;;;3.33;;
9102;SDS011;4587;51.434;6.788;2023-05-29T01:31:23;9.50;;;3.23;;
9102;SDS011;4587;51.434;6.788;2023-05-29T01:33:54;7.40;;;3.10;;
9102;SDS011;4587;51.434;6.788;2023-05-29T01:36:20;9.00;;;3.20;;
9102;SDS011;4587;51.434;6.788;2023-05-29T01:38:47;9.80;;;2.80;;
9102;SDS011;4587;51.434;6.788;2023-05-29T01:41:15;5.20;;;2.40;;
9102;SDS011;4587;51.434;6.788;2023-05-29T01:43:42;8.67;;;2.90;;
9102;SDS011;4587;51.434;6.788;2023-05-29T01:46:12;8.97;;;2.60;;
9102;SDS011;4587;51.434;6.788;2023-05-29T01:48:39;10.23;;;3.33;;
9102;SDS011;4587;51.434;6.788;2023-05-29T01:51:06;8.07;;;2.43;;
9102;SDS011;4587;51.434;6.788;2023-05-29T01:53:32;8.90;;;2.80;;
9102;SDS011;4587;51.434;6.788;2023-05-29T01:55:58;8.07;;;2.87;;
9102;SDS011;4587;51.434;6.788;2023-05-29T01:58:23;8.13;;;2.67;;
9102;SDS011;4587;51.434;6.788;2023-05-29T02:00:51;9.20;;;2.77;;
9102;SDS011;4587;51.434;6.788;2023-05-29T02:03:17;8.63;;;3.20;;
9102;SDS011;4587;51.434;6.788;2023-05-29T02:05:42;10.23;;;2.87;;
9102;SDS011;4587;51.434;6.788;2023-05-29T02:08:08;7.43;;;3.13;;
9102;SDS011;4587;51.434;6.788;2023-05-29T02:10:33;8.13;;;2.60;;
9102;SDS011;4587;51.434;6.788;2023-05-29T02:12:59;11.20;;;2.90;;
9102;SDS011;4587;51.434;6.788;2023-05-29T02:15:25;9.13;;;3.13;;
9102;SDS011;4587;51.434;6.788;2023-05-29T02:17:50;10.13;;;3.20;;
9102;SDS011;4587;51.434;6.788;2023-05-29T02:20:17;8.47;;;2.60;;
9102;SDS011;4587;51.434;6.788;2023-05-29T02:22:43;9.57;;;3.03;;
9102;SDS011;4587;51.434;6.788;2023-05-29T02:25:08;8.30;;;3.00;;
9102;SDS011;4587;51.434;6.788;2023-05-29T02:27:34;10.50;;;3.10;;
9102;SDS011;4587;51.434;6.788;2023-05-29T02:29:59;10.43;;;3.10;;
9102;SDS011;4587;51.434;6.788;2023-05-29T02:32:25;8.93;;;2.97;;
9102;SDS011;4587;51.434;6.788;2023-05-29T02:34:53;8.40;;;3.13;;
9102;SDS011;4587;51.434;6.788;2023-05-29T02:37:19;9.80;;;3.10;;
9102;SDS011;4587;51.434;6.788;2023-05-29T02:39:44;7.93;;;2.53;;
9102;SDS011;4587;51.434;6.788;2023-05-29T02:42:10;10.97;;;3.30;;
9102;SDS011;4587;51.434;6.788;2023-05-29T02:44:36;13.33;;;3.10;;
9102;SDS011;4587;51.434;6.788;2023-05-29T02:47:01;7.23;;;2.70;;
9102;SDS011;4587;51.434;6.788;2023-05-29T02:49:27;8.87;;;3.10;;
9102;SDS011;4587;51.434;6.788;2023-05-29T02:51:52;11.13;;;2.87;;
9102;SDS011;4587;51.434;6.788;2023-05-29T02:54:23;10.03;;;3.23;;
9102;SDS011;4587;51.434;6.788;2023-05-29T02:56:49;9.20;;;2.73;;
9102;SDS011;4587;51.434;6.788;2023-05-29T02:59:15;9.33;;;2.70;;
9102;SDS011;4587;51.434;6.788;2023-05-29T03:01:41;10.43;;;2.97;;
9102;SDS011;4587;51.434;6.788;2023-05-29T03:04:07;10.87;;;2.80;;
9102;SDS011;4587;51.434;6.788;2023-05-29T03:06:34;10.53;;;3.03;;
9102;SDS011;4587;51.434;6.788;2023-05-29T03:09:01;10.23;;;2.73;;
9102;SDS011;4587;51.434;6.788;2023-05-29T03:11:33;8.70;;;2.70;;
9102;SDS011;4587;51.434;6.788;2023-05-29T03:14:00;10.77;;;2.60;;
9102;SDS011;4587;51.434;6.788;2023-05-29T03:16:26;12.63;;;2.83;;
9102;SDS011;4587;51.434;6.788;2023-05-29T03:18:54;10.27;;;2.77;;
9102;SDS011;4587;51.434;6.788;2023-05-29T03:21:20;11.20;;;2.97;;
9102;SDS011;4587;51.434;6.788;2023-05-29T03:23:46;13.20;;;3.70;;
9102;SDS011;4587;51.434;6.788;2023-05-29T03:26:12;12.77;;;3.47;;
9102;SDS011;4587;51.434;6.788;2023-05-29T03:28:38;7.87;;;2.80;;
9102;SDS011;4587;51.434;6.788;2023-05-29T03:31:04;10.87;;;3.57;;
9102;SDS011;4587;51.434;6.788;2023-05-29T03:33:29;11.37;;;3.13;;
9102;SDS011;4587;51.434;6.788;2023-05-29T03:35:55;11.43;;;3.17;;
9102;SDS011;4587;51.434;6.788;2023-05-29T03:38:21;10.03;;;3.40;;
9102;SDS011;4587;51.434;6.788;2023-05-29T03:40:47;12.17;;;2.93;;
9102;SDS011;4587;51.434;6.788;2023-05-29T03:43:12;13.03;;;3.30;;
9102;SDS011;4587;51.434;6.788;2023-05-29T03:45:38;11.63;;;3.70;;
9102;SDS011;4587;51.434;6.788;2023-05-29T03:48:03;11.10;;;2.67;;
9102;SDS011;4587;51.434;6.788;2023-05-29T03:50:29;10.87;;;3.60;;
9102;SDS011;4587;51.434;6.788;2023-05-29T03:52:55;10.97;;;3.27;;
9102;SDS011;4587;51.434;6.788;2023-05-29T03:55:20;12.73;;;3.50;;
9102;SDS011;4587;51.434;6.788;2023-05-29T03:57:46;12.27;;;3.27;;
9102;SDS011;4587;51.434;6.788;2023-05-29T04:00:12;12.90;;;3.27;;
9102;SDS011;4587;51.434;6.788;2023-05-29T04:02:38;13.50;;;3.67;;
9102;SDS011;4587;51.434;6.788;2023-05-29T04:05:04;14.57;;;3.60;;
9102;SDS011;4587;51.434;6.788;2023-05-29T04:07:31;13.67;;;3.73;;
9102;SDS011;4587;51.434;6.788;2023-05-29T04:09:57;12.07;;;3.40;;
9102;SDS011;4587;51.434;6.788;2023-05-29T04:12:23;13.87;;;3.23;;
9102;SDS011;4587;51.434;6.788;2023-05-29T04:14:48;12.17;;;3.53;;
9102;SDS011;4587;51.434;6.788;2023-05-29T04:17:14;16.20;;;3.80;;
9102;SDS011;4587;51.434;6.788;2023-05-29T04:19:40;12.90;;;3.47;;
9102;SDS011;4587;51.434;6.788;2023-05-29T04:22:05;13.80;;;3.43;;
9102;SDS011;4587;51.434;6.788;2023-05-29T04:24:32;9.73;;;3.17;;
9102;SDS011;4587;51.434;6.788;2023-05-29T04:26:58;14.43;;;3.20;;
9102;SDS011;4587;51.434;6.788;2023-05-29T04:29:26;9.63;;;2.90;;
9102;SDS011;4587;51.434;6.788;2023-05-29T04:31:53;10.13;;;3.20;;
9102;SDS011;4587;51.434;6.788;2023-05-29T04:34:20;14.07;;;3.20;;
9102;SDS011;4587;51.434;6.788;2023-05-29T04:36:46;11.37;;;3.13;;
9102;SDS011;4587;51.434;6.788;2023-05-29T04:39:12;13.73;;;3.37;;
9102;SDS011;4587;51.434;6.788;2023-05-29T04:41:39;12.87;;;3.30;;
9102;SDS011;4587;51.434;6.788;2023-05-29T04:44:05;13.13;;;2.97;;
9102;SDS011;4587;51.434;6.788;2023-05-29T04:46:32;15.63;;;3.63;;
9102;SDS011;4587;51.434;6.788;2023-05-29T04:48:59;9.73;;;3.00;;
9102;SDS011;4587;51.434;6.788;2023-05-29T04:51:27;14.13;;;3.57;;
9102;SDS011;4587;51.434;6.788;2023-05-29T04:53:53;13.17;;;3.27;;
9102;SDS011;4587;51.434;6.788;2023-05-29T04:56:19;13.03;;;3.43;;
9102;SDS011;4587;51.434;6.788;2023-05-29T04:58:45;12.73;;;3.23;;
9102;SDS011;4587;51.434;6.788;2023-05-29T05:01:11;11.57;;;3.27;;
9102;SDS011;4587;51.434;6.788;2023-05-29T05:03:42;10.30;;;3.23;;
9102;SDS011;4587;51.434;6.788;2023-05-29T05:06:09;12.33;;;3.17;;
9102;SDS011;4587;51.434;6.788;2023-05-29T05:08:35;13.50;;;3.57;;
9102;SDS011;4587;51.434;6.788;2023-05-29T05:11:00;12.43;;;3.00;;
9102;SDS011;4587;51.434;6.788;2023-05-29T05:13:27;14.27;;;3.47;;
9102;SDS011;4587;51.434;6.788;2023-05-29T05:15:53;14.67;;;3.53;;
9102;SDS011;4587;51.434;6.788;2023-05-29T05:18:18;14.13;;;3.33;;
9102;SDS011;4587;51.434;6.788;2023-05-29T05:20:44;12.87;;;3.07;;
9102;SDS011;4587;51.434;6.788;2023-05-29T05:23:10;13.23;;;3.70;;
9102;SDS011;4587;51.434;6.788;2023-05-29T05:25:36;10.93;;;3.03;;
9102;SDS011;4587;51.434;6.788;2023-05-29T05:28:03;13.63;;;3.27;;
9102;SDS011;4587;51.434;6.788;2023-05-29T05:30:33;13.07;;;3.60;;
9102;SDS011;4587;51.434;6.788;2023-05-29T05:32:58;10.67;;;2.80;;
9102;SDS011;4587;51.434;6.788;2023-05-29T05:35:24;14.07;;;3.37;;
9102;SDS011;4587;51.434;6.788;2023-05-29T05:37:50;16.27;;;3.67;;
9102;SDS011;4587;51.434;6.788;2023-05-29T05:40:15;13.93;;;3.03;;
9102;SDS011;4587;51.434;6.788;2023-05-29T05:42:41;9.27;;;2.90;;
9102;SDS011;4587;51.434;6.788;2023-05-29T05:45:07;12.23;;;3.13;;
9102;SDS011;4587;51.434;6.788;2023-05-29T05:47:33;11.57;;;3.20;;
9102;SDS011;4587;51.434;6.788;2023-05-29T05:52:34;11.97;;;2.80;;
9102;SDS011;4587;51.434;6.788;2023-05-29T05:54:59;12.93;;;3.33;;
9102;SDS011;4587;51.434;6.788;2023-05-29T05:57:25;11.17;;;2.83;;
9102;SDS011;4587;51.434;6.788;2023-05-29T05:59:52;13.40;;;3.03;;
9102;SDS011;4587;51.434;6.788;2023-05-29T06:02:17;11.73;;;2.80;;
9102;SDS011;4587;51.434;6.788;2023-05-29T06:04:43;12.30;;;3.10;;
9102;SDS011;4587;51.434;6.788;2023-05-29T06:07:08;14.53;;;3.40;;
9102;SDS011;4587;51.434;6.788;2023-05-29T06:09:34;11.07;;;2.90;;
9102;SDS011;4587;51.434;6.788;2023-05-29T06:12:01;10.80;;;2.93;;
9102;SDS011;4587;51.434;6.788;2023-05-29T06:14:27;9.60;;;3.17;;
9102;SDS011;4587;51.434;6.788;2023-05-29T06:16:52;10.90;;;3.20;;
9102;SDS011;4587;51.434;6.788;2023-05-29T06:19:18;10.83;;;3.20;;
9102;SDS011;4587;51.434;6.788;2023-05-29T06:21:44;11.67;;;3.00;;
9102;SDS011;4587;51.434;6.788;2023-05-29T06:24:09;10.10;;;2.67;;
9102;SDS011;4587;51.434;6.788;2023-05-29T06:26:36;9.33;;;2.80;;
9102;SDS011;4587;51.434;6.788;2023-05-29T06:29:01;11.03;;;3.00;;
9102;SDS011;4587;51.434;6.788;2023-05-29T06:31:27;11.40;;;3.60;;
9102;SDS011;4587;51.434;6.788;2023-05-29T06:33:53;9.97;;;2.80;;
9102;SDS011;4587;51.434;6.788;2023-05-29T06:36:19;10.30;;;2.90;;
9102;SDS011;4587;51.434;6.788;2023-05-29T06:38:46;8.70;;;2.70;;
9102;SDS011;4587;51.434;6.788;2023-05-29T06:41:13;8.67;;;2.73;;
9102;SDS011;4587;51.434;6.788;2023-05-29T06:43:38;8.80;;;2.70;;
9102;SDS011;4587;51.434;6.788;2023-05-29T06:46:04;8.27;;;2.83;;
9102;SDS011;4587;51.434;6.788;2023-05-29T06:48:36;9.97;;;2.60;;
9102;SDS011;4587;51.434;6.788;2023-05-29T06:51:02;10.80;;;2.90;;
9102;SDS011;4587;51.434;6.788;2023-05-29T06:53:34;7.80;;;2.80;;
9102;SDS011;4587;51.434;6.788;2023-05-29T06:56:01;11.10;;;3.00;;
9102;SDS011;4587;51.434;6.788;2023-05-29T06:58:26;7.77;;;2.87;;
9102;SDS011;4587;51.434;6.788;2023-05-29T07:00:52;9.87;;;2.83;;
9102;SDS011;4587;51.434;6.788;2023-05-29T07:03:18;8.50;;;2.37;;
9102;SDS011;4587;51.434;6.788;2023-05-29T07:05:43;7.43;;;2.90;;
9102;SDS011;4587;51.434;6.788;2023-05-29T07:08:09;7.80;;;2.70;;
9102;SDS011;4587;51.434;6.788;2023-05-29T07:10:34;7.83;;;2.83;;
9102;SDS011;4587;51.434;6.788;2023-05-29T07:13:00;9.27;;;2.77;;
9102;SDS011;4587;51.434;6.788;2023-05-29T07:15:25;10.18;;;2.78;;
9102;SDS011;4587;51.434;6.788;2023-05-29T07:17:51;10.00;;;3.10;;
9102;SDS011;4587;51.434;6.788;2023-05-29T07:20:17;7.25;;;3.08;;
9102;SDS011;4587;51.434;6.788;2023-05-29T07:22:45;9.40;;;3.10;;
9102;SDS011;4587;51.434;6.788;2023-05-29T07:25:10;7.25;;;2.67;;
9102;SDS011;4587;51.434;6.788;2023-05-29T07:27:36;7.00;;;2.70;;
9102;SDS011;4587;51.434;6.788;2023-05-29T07:30:01;9.02;;;3.00;;
9102;SDS011;4587;51.434;6.788;2023-05-29T07:32:27;10.20;;;3.22;;
9102;SDS011;4587;51.434;6.788;2023-05-29T07:34:53;8.38;;;3.20;;
9102;SDS011;4587;51.434;6.788;2023-05-29T07:37:20;10.15;;;3.38;;
9102;SDS011;4587;51.434;6.788;2023-05-29T07:39:46;7.50;;;2.92;;
9102;SDS011;4587;51.434;6.788;2023-05-29T07:42:11;6.97;;;2.60;;
9102;SDS011;4587;51.434;6.788;2023-05-29T07:44:37;8.95;;;2.95;;
9102;SDS011;4587;51.434;6.788;2023-05-29T07:47:03;9.30;;;3.42;;
9102;SDS011;4587;51.434;6.788;2023-05-29T07:49:29;9.90;;;2.95;;
9102;SDS011;4587;51.434;6.788;2023-05-29T07:51:55;8.52;;;3.25;;
9102;SDS011;4587;51.434;6.788;2023-05-29T07:54:21;7.32;;;2.80;;
9102;SDS011;4587;51.434;6.788;2023-05-29T07:56:47;12.43;;;3.63;;
9102;SDS011;4587;51.434;6.788;2023-05-29T07:59:13;10.60;;;3.55;;
9102;SDS011;4587;51.434;6.788;2023-05-29T08:01:39;9.77;;;3.17;;
9102;SDS011;4587;51.434;6.788;2023-05-29T08:04:05;9.60;;;3.33;;
9102;SDS011;4587;51.434;6.788;2023-05-29T08:06:30;9.13;;;3.05;;
9102;SDS011;4587;51.434;6.788;2023-05-29T08:08:59;9.13;;;3.00;;
9102;SDS011;4587;51.434;6.788;2023-05-29T08:11:25;9.63;;;3.00;;
9102;SDS011;4587;51.434;6.788;2023-05-29T08:13:50;8.03;;;2.77;;
9102;SDS011;4587;51.434;6.788;2023-05-29T08:16:16;8.97;;;3.33;;
9102;SDS011;4587;51.434;6.788;2023-05-29T08:18:42;11.33;;;3.57;;
9102;SDS011;4587;51.434;6.788;2023-05-29T08:21:08;9.20;;;3.40;;
9102;SDS011;4587;51.434;6.788;2023-05-29T08:23:34;9.60;;;3.27;;
9102;SDS011;4587;51.434;6.788;2023-05-29T08:26:00;11.67;;;3.30;;
9102;SDS011;4587;51.434;6.788;2023-05-29T08:28:27;9.13;;;3.20;;
9102;SDS011;4587;51.434;6.788;2023-05-29T08:30:53;10.27;;;3.20;;
9102;SDS011;4587;51.434;6.788;2023-05-29T08:33:18;10.23;;;3.23;;
9102;SDS011;4587;51.434;6.788;2023-05-29T08:35:44;9.20;;;3.40;;
9102;SDS011;4587;51.434;6.788;2023-05-29T08:38:10;10.37;;;2.90;;
9102;SDS011;4587;51.434;6.788;2023-05-29T08:40:36;9.97;;;3.00;;
9102;SDS011;4587;51.434;6.788;2023-05-29T08:43:23;10.30;;;3.30;;
9102;SDS011;4587;51.434;6.788;2023-05-29T08:45:53;11.33;;;3.57;;
9102;SDS011;4587;51.434;6.788;2023-05-29T08:48:22;8.20;;;3.17;;
9102;SDS011;4587;51.434;6.788;2023-05-29T08:50:49;11.07;;;3.50;;
9102;SDS011;4587;51.434;6.788;2023-05-29T08:53:17;10.23;;;3.27;;
9102;SDS011;4587;51.434;6.788;2023-05-29T08:55:44;6.87;;;3.07;;
9102;SDS011;4587;51.434;6.788;2023-05-29T08:58:12;9.80;;;3.60;;
9102;SDS011;4587;51.434;6.788;2023-05-29T09:00:39;8.87;;;3.20;;
9102;SDS011;4587;51.434;6.788;2023-05-29T09:03:06;9.10;;;3.30;;
9102;SDS011;4587;51.434;6.788;2023-05-29T09:05:32;14.17;;;3.50;;
9102;SDS011;4587;51.434;6.788;2023-05-29T09:08:04;10.63;;;3.23;;
9102;SDS011;4587;51.434;6.788;2023-05-29T09:10:30;13.63;;;3.20;;
9102;SDS011;4587;51.434;6.788;2023-05-29T09:12:58;10.20;;;3.23;;
9102;SDS011;4587;51.434;6.788;2023-05-29T09:15:24;9.17;;;3.00;;
9102;SDS011;4587;51.434;6.788;2023-05-29T09:17:50;11.30;;;3.13;;
9102;SDS011;4587;51.434;6.788;2023-05-29T09:20:22;10.00;;;3.33;;
9102;SDS011;4587;51.434;6.788;2023-05-29T09:22:55;9.63;;;3.20;;
9102;SDS011;4587;51.434;6.788;2023-05-29T09:25:22;9.17;;;2.93;;
9102;SDS011;4587;51.434;6.788;2023-05-29T09:27:55;9.97;;;3.43;;
9102;SDS011;4587;51.434;6.788;2023-05-29T09:30:39;14.27;;;3.60;;
9102;SDS011;4587;51.434;6.788;2023-05-29T09:33:06;9.60;;;3.23;;
9102;SDS011;4587;51.434;6.788;2023-05-29T09:35:41;9.30;;;3.47;;
9102;SDS011;4587;51.434;6.788;2023-05-29T09:38:08;11.40;;;3.10;;
9102;SDS011;4587;51.434;6.788;2023-05-29T09:40:35;9.30;;;3.13;;
9102;SDS011;4587;51.434;6.788;2023-05-29T09:43:03;11.20;;;3.27;;
9102;SDS011;4587;51.434;6.788;2023-05-29T09:45:29;8.57;;;3.13;;
9102;SDS011;4587;51.434;6.788;2023-05-29T09:47:55;8.77;;;3.40;;
9102;SDS011;4587;51.434;6.788;2023-05-29T09:50:25;7.83;;;3.20;;
9102;SDS011;4587;51.434;6.788;2023-05-29T09:52:51;11.83;;;3.40;;
9102;SDS011;4587;51.434;6.788;2023-05-29T09:55:21;9.13;;;3.10;;
9102;SDS011;4587;51.434;6.788;2023-05-29T09:57:48;11.70;;;3.40;;
9102;SDS011;4587;51.434;6.788;2023-05-29T10:00:15;10.03;;;3.37;;
9102;SDS011;4587;51.434;6.788;2023-05-29T10:02:42;7.83;;;2.80;;
9102;SDS011;4587;51.434;6.788;2023-05-29T10:05:07;11.60;;;3.20;;
9102;SDS011;4587;51.434;6.788;2023-05-29T10:07:35;13.80;;;3.60;;
9102;SDS011;4587;51.434;6.788;2023-05-29T10:10:05;10.03;;;3.30;;
9102;SDS011;4587;51.434;6.788;2023-05-29T10:12:32;10.03;;;3.30;;
9102;SDS011;4587;51.434;6.788;2023-05-29T10:15:03;9.57;;;3.20;;
9102;SDS011;4587;51.434;6.788;2023-05-29T10:17:36;10.63;;;3.27;;
9102;SDS011;4587;51.434;6.788;2023-05-29T10:20:04;9.90;;;3.00;;
9102;SDS011;4587;51.434;6.788;2023-05-29T10:22:32;10.67;;;3.77;;
9102;SDS011;4587;51.434;6.788;2023-05-29T10:24:58;7.97;;;3.33;;
9102;SDS011;4587;51.434;6.788;2023-05-29T10:27:25;10.33;;;2.80;;
9102;SDS011;4587;51.434;6.788;2023-05-29T10:30:06;9.40;;;3.10;;
9102;SDS011;4587;51.434;6.788;2023-05-29T10:35:31;7.77;;;2.70;;
9102;SDS011;4587;51.434;6.788;2023-05-29T10:38:12;10.17;;;2.97;;
9102;SDS011;4587;51.434;6.788;2023-05-29T10:40:43;11.47;;;3.30;;
9102;SDS011;4587;51.434;6.788;2023-05-29T10:43:09;10.60;;;2.97;;
9102;SDS011;4587;51.434;6.788;2023-05-29T10:45:58;9.47;;;3.03;;
9102;SDS011;4587;51.434;6.788;2023-05-29T10:50:54;10.90;;;3.10;;
9102;SDS011;4587;51.434;6.788;2023-05-29T10:53:24;7.97;;;2.80;;
9102;SDS011;4587;51.434;6.788;2023-05-29T10:55:51;9.77;;;2.90;;
9102;SDS011;4587;51.434;6.788;2023-05-29T10:58:18;7.47;;;3.07;;
9102;SDS011;4587;51.434;6.788;2023-05-29T11:00:45;11.33;;;3.23;;
9102;SDS011;4587;51.434;6.788;2023-05-29T11:03:14;9.17;;;3.00;;
9102;SDS011;4587;51.434;6.788;2023-05-29T11:09:25;7.83;;;2.80;;
9102;SDS011;4587;51.434;6.788;2023-05-29T11:11:40;8.10;;;2.87;;
9102;SDS011;4587;51.434;6.788;2023-05-29T11:14:06;8.57;;;2.97;;
9102;SDS011;4587;51.434;6.788;2023-05-29T11:18:58;6.07;;;3.03;;
9102;SDS011;4587;51.434;6.788;2023-05-29T11:21:38;8.83;;;3.00;;
9102;SDS011;4587;51.434;6.788;2023-05-29T11:26:49;7.37;;;2.77;;
9102;SDS011;4587;51.434;6.788;2023-05-29T11:29:18;5.00;;;2.73;;
9102;SDS011;4587;51.434;6.788;2023-05-29T11:32:03;10.23;;;2.90;;
9102;SDS011;4587;51.434;6.788;2023-05-29T11:34:37;7.57;;;3.03;;
9102;SDS011;4587;51.434;6.788;2023-05-29T11:37:05;6.87;;;2.40;;
9102;SDS011;4587;51.434;6.788;2023-05-29T11:39:31;12.03;;;2.63;;
9102;SDS011;4587;51.434;6.788;2023-05-29T11:42:01;9.53;;;2.93;;
9102;SDS011;4587;51.434;6.788;2023-05-29T11:44:26;9.87;;;3.13;;
9102;SDS011;4587;51.434;6.788;2023-05-29T11:47:02;8.77;;;2.83;;
9102;SDS011;4587;51.434;6.788;2023-05-29T11:49:29;10.33;;;3.23;;
9102;SDS011;4587;51.434;6.788;2023-05-29T11:52:06;11.10;;;2.60;;
9102;SDS011;4587;51.434;6.788;2023-05-29T11:54:33;7.97;;;2.77;;
9102;SDS011;4587;51.434;6.788;2023-05-29T11:56:59;7.73;;;3.17;;
9102;SDS011;4587;51.434;6.788;2023-05-29T11:59:28;6.03;;;2.67;;
9102;SDS011;4587;51.434;6.788;2023-05-29T12:01:54;8.27;;;2.63;;
9102;SDS011;4587;51.434;6.788;2023-05-29T12:04:20;8.30;;;2.80;;
9102;SDS011;4587;51.434;6.788;2023-05-29T12:06:45;11.23;;;3.10;;
9102;SDS011;4587;51.434;6.788;2023-05-29T12:09:23;9.03;;;3.00;;
9102;SDS011;4587;51.434;6.788;2023-05-29T12:11:50;6.83;;;2.67;;
9102;SDS011;4587;51.434;6.788;2023-05-29T12:14:16;8.43;;;2.93;;
9102;SDS011;4587;51.434;6.788;2023-05-29T12:16:41;7.83;;;3.03;;
9102;SDS011;4587;51.434;6.788;2023-05-29T12:19:07;7.90;;;2.93;;
9102;SDS011;4587;51.434;6.788;2023-05-29T12:21:33;10.23;;;3.10;;
9102;SDS011;4587;51.434;6.788;2023-05-29T12:23:59;7.47;;;2.67;;
9102;SDS011;4587;51.434;6.788;2023-05-29T12:26:25;5.87;;;2.60;;
9102;SDS011;4587;51.434;6.788;2023-05-29T12:28:51;8.33;;;2.83;;
9102;SDS011;4587;51.434;6.788;2023-05-29T12:31:29;7.47;;;2.70;;
9102;SDS011;4587;51.434;6.788;2023-05-29T12:34:02;6.67;;;3.00;;
9102;SDS011;4587;51.434;6.788;2023-05-29T12:36:40;9.97;;;2.87;;
9102;SDS011;4587;51.434;6.788;2023-05-29T12:39:08;7.37;;;2.90;;
9102;SDS011;4587;51.434;6.788;2023-05-29T12:41:34;7.57;;;2.53;;
9102;SDS011;4587;51.434;6.788;2023-05-29T12:44:01;8.73;;;2.60;;
9102;SDS011;4587;51.434;6.788;2023-05-29T12:46:34;7.97;;;2.70;;
9102;SDS011;4587;51.434;6.788;2023-05-29T12:49:13;7.87;;;2.83;;
9102;SDS011;4587;51.434;6.788;2023-05-29T12:51:40;8.37;;;2.77;;
9102;SDS011;4587;51.434;6.788;2023-05-29T12:54:08;7.57;;;2.70;;
9102;SDS011;4587;51.434;6.788;2023-05-29T12:56:35;5.83;;;2.80;;
9102;SDS011;4587;51.434;6.788;2023-05-29T12:59:00;5.43;;;2.27;;
9102;SDS011;4587;51.434;6.788;2023-05-29T13:01:26;6.47;;;2.80;;
9102;SDS011;4587;51.434;6.788;2023-05-29T13:03:52;6.03;;;2.70;;
9102;SDS011;4587;51.434;6.788;2023-05-29T13:06:17;8.33;;;2.80;;
9102;SDS011;4587;51.434;6.788;2023-05-29T13:08:43;5.77;;;2.80;;
9102;SDS011;4587;51.434;6.788;2023-05-29T13:11:09;6.80;;;2.70;;
9102;SDS011;4587;51.434;6.788;2023-05-29T13:13:34;7.07;;;2.80;;
9102;SDS011;4587;51.434;6.788;2023-05-29T13:16:00;9.07;;;2.90;;
9102;SDS011;4587;51.434;6.788;2023-05-29T13:18:25;6.43;;;3.00;;
9102;SDS011;4587;51.434;6.788;2023-05-29T13:20:51;8.90;;;2.97;;
9102;SDS011;4587;51.434;6.788;2023-05-29T13:23:17;8.37;;;2.90;;
9102;SDS011;4587;51.434;6.788;2023-05-29T13:25:42;8.70;;;3.73;;
9102;SDS011;4587;51.434;6.788;2023-05-29T13:28:08;8.03;;;3.30;;
9102;SDS011;4587;51.434;6.788;2023-05-29T13:30:33;6.93;;;2.90;;
9102;SDS011;4587;51.434;6.788;2023-05-29T13:32:59;9.37;;;2.97;;
9102;SDS011;4587;51.434;6.788;2023-05-29T13:35:24;5.13;;;2.70;;
9102;SDS011;4587;51.434;6.788;2023-05-29T13:37:50;7.13;;;2.90;;
9102;SDS011;4587;51.434;6.788;2023-05-29T13:40:15;8.57;;;2.70;;
9102;SDS011;4587;51.434;6.788;2023-05-29T13:42:41;6.97;;;2.73;;
9102;SDS011;4587;51.434;6.788;2023-05-29T13:45:07;6.10;;;2.70;;
9102;SDS011;4587;51.434;6.788;2023-05-29T13:47:33;7.20;;;2.57;;
9102;SDS011;4587;51.434;6.788;2023-05-29T13:49:59;7.10;;;2.83;;
9102;SDS011;4587;51.434;6.788;2023-05-29T13:52:25;8.90;;;2.43;;
9102;SDS011;4587;51.434;6.788;2023-05-29T13:54:51;7.23;;;2.50;;
9102;SDS011;4587;51.434;6.788;2023-05-29T13:57:17;7.43;;;2.67;;
9102;SDS011;4587;51.434;6.788;2023-05-29T13:59:43;6.83;;;2.40;;
9102;SDS011;4587;51.434;6.788;2023-05-29T14:02:08;7.10;;;2.50;;
9102;SDS011;4587;51.434;6.788;2023-05-29T14:04:34;7.17;;;2.67;;
9102;SDS011;4587;51.434;6.788;2023-05-29T14:07:00;7.97;;;2.73;;
9102;SDS011;4587;51.434;6.788;2023-05-29T14:09:25;7.23;;;2.77;;
9102;SDS011;4587;51.434;6.788;2023-05-29T14:11:54;7.13;;;2.57;;
9102;SDS011;4587;51.434;6.788;2023-05-29T14:14:20;5.60;;;2.43;;
9102;SDS011;4587;51.434;6.788;2023-05-29T14:16:47;7.13;;;2.60;;
9102;SDS011;4587;51.434;6.788;2023-05-29T14:19:13;8.53;;;2.80;;
9102;SDS011;4587;51.434;6.788;2023-05-29T14:21:39;5.37;;;2.50;;
9102;SDS011;4587;51.434;6.788;2023-05-29T14:24:05;6.73;;;2.77;;
9102;SDS011;4587;51.434;6.788;2023-05-29T14:26:32;7.53;;;2.57;;
9102;SDS011;4587;51.434;6.788;2023-05-29T14:28:57;6.83;;;2.63;;
9102;SDS011;4587;51.434;6.788;2023-05-29T14:31:23;6.87;;;2.60;;
9102;SDS011;4587;51.434;6.788;2023-05-29T14:33:48;10.90;;;3.20;;
9102;SDS011;4587;51.434;6.788;2023-05-29T14:36:14;9.07;;;3.00;;
9102;SDS011;4587;51.434;6.788;2023-05-29T14:38:40;6.80;;;3.10;;
9102;SDS011;4587;51.434;6.788;2023-05-29T14:41:06;6.63;;;2.70;;
9102;SDS011;4587;51.434;6.788;2023-05-29T14:43:32;6.80;;;3.27;;
9102;SDS011;4587;51.434;6.788;2023-05-29T14:45:57;7.60;;;2.87;;
9102;SDS011;4587;51.434;6.788;2023-05-29T14:48:23;9.03;;;3.03;;
9102;SDS011;4587;51.434;6.788;2023-05-29T14:50:48;6.57;;;2.87;;
9102;SDS011;4587;51.434;6.788;2023-05-29T14:53:14;8.80;;;3.00;;
9102;SDS011;4587;51.434;6.788;2023-05-29T14:55:40;8.73;;;3.00;;
9102;SDS011;4587;51.434;6.788;2023-05-29T14:58:05;7.70;;;3.40;;
9102;SDS011;4587;51.434;6.788;2023-05-29T15:00:31;7.30;;;2.40;;
9102;SDS011;4587;51.434;6.788;2023-05-29T15:02:57;9.57;;;3.30;;
9102;SDS011;4587;51.434;6.788;2023-05-29T15:05:27;7.43;;;2.90;;
9102;SDS011;4587;51.434;6.788;2023-05-29T15:07:53;8.37;;;3.10;;
9102;SDS011;4587;51.434;6.788;2023-05-29T15:10:21;7.23;;;2.93;;
9102;SDS011;4587;51.434;6.788;2023-05-29T15:12:49;9.20;;;2.63;;
9102;SDS011;4587;51.434;6.788;2023-05-29T15:15:21;8.00;;;2.83;;
9102;SDS011;4587;51.434;6.788;2023-05-29T15:17:48;9.50;;;2.80;;
9102;SDS011;4587;51.434;6.788;2023-05-29T15:20:16;6.87;;;2.77;;
9102;SDS011;4587;51.434;6.788;2023-05-29T15:22:43;6.80;;;2.80;;
9102;SDS011;4587;51.434;6.788;2023-05-29T15:25:09;11.67;;;3.03;;
9102;SDS011;4587;51.434;6.788;2023-05-29T15:27:35;8.23;;;3.13;;
9102;SDS011;4587;51.434;6.788;2023-05-29T15:30:10;6.80;;;2.30;;
9102;SDS011;4587;51.434;6.788;2023-05-29T15:32:37;5.67;;;2.57;;
9102;SDS011;4587;51.434;6.788;2023-05-29T15:35:03;7.13;;;2.87;;
9102;SDS011;4587;51.434;6.788;2023-05-29T15:37:29;5.43;;;2.50;;
9102;SDS011;4587;51.434;6.788;2023-05-29T15:39:55;5.83;;;2.50;;